This is the latest recevied weather packets stored in our database for station/object AG1T-20. If no packets are shown the sender has not sent any weather packets the latest 10 day(s).
| Time | Temp. | Humidity | Pressure | Rain* | Wind** | Luminosity | Snow |
|---|---|---|---|---|---|---|---|
| 1787877605 | 29.44° C | 28% | 1019.1 hPa | 0 mm | - | 41 W/m² | - |
| 1787877004 | 30° C | 27% | 1019.1 hPa | 0 mm | - | 58 W/m² | - |
| 1787876404 | 30.56° C | 26% | 1019.1 hPa | 0 mm | - | 87 W/m² | - |
| 1787875804 | 31.67° C | 23% | 1019.1 hPa | 0 mm | - | 116 W/m² | - |
| 1787875204 | 32.22° C | 24% | 1019.1 hPa | 0 mm | - | 135 W/m² | - |
| 1787874604 | 33.33° C | 23% | 1019.7 hPa | 0 mm | - | 172 W/m² | - |
| 1787874004 | 33.33° C | 23% | 1019.7 hPa | 0 mm | - | 162 W/m² | - |
| 1787873404 | 32.78° C | 23% | 1019.7 hPa | 0 mm | - | 227 W/m² | - |
| 1787872804 | 31.11° C | 26% | 1019.7 hPa | 0 mm | - | 173 W/m² | - |
| 1787872204 | 32.22° C | 27% | 1019.7 hPa | 0 mm | - | 173 W/m² | - |
| 1787871605 | 32.22° C | 24% | 1019.7 hPa | 0 mm | - | 175 W/m² | - |
| 1787871004 | 32.78° C | 23% | 1019.9 hPa | 0 mm | - | 178 W/m² | - |
| 1787870404 | 33.33° C | 24% | 1019.9 hPa | 0 mm | - | 129 W/m² | - |
| 1787869804 | 35.56° C | 19% | 1019.9 hPa | 0 mm | - | 348 W/m² | - |
| 1787869204 | 35° C | 19% | 1019.9 hPa | 0 mm | - | 377 W/m² | - |
| 1787868604 | 35° C | 19% | 1019.9 hPa | 0 mm | - | 391 W/m² | - |
| 1787868004 | 35° C | 19% | 1019.9 hPa | 0 mm | - | 380 W/m² | - |
| 1787867405 | 33.33° C | 20% | 1020.9 hPa | 0 mm | - | 529 W/m² | - |
| 1787866804 | 33.33° C | 25% | 1020.9 hPa | 0 mm | - | 660 W/m² | - |
| 1787866204 | 32.22° C | 23% | 1020.9 hPa | 0 mm | - | 245 W/m² | - |
| 1787865605 | 32.78° C | 24% | 1020.9 hPa | 0 mm | - | 258 W/m² | - |
| 1787865005 | 33.33° C | 23% | 1020.9 hPa | 0 mm | - | 670 W/m² | - |
| 1787864405 | 32.22° C | 23% | 1020.9 hPa | 0 mm | - | 619 W/m² | - |
| 1787863804 | 33.89° C | 24% | 1021.6 hPa | 0 mm | - | 747 W/m² | - |
| 1787863204 | 31.67° C | 26% | 1021.6 hPa | 0 mm | - | 420 W/m² | - |
* Rain latest hour (hover to see other rain measurements)
** Current wind speed in m/s (hover to see current wind gust speed)